Pep, New Mexico
Current Conditions -  °F | °C
As of 6:58 AM on Thursday 30 Oct 2014 (Local Time) from KCVS Reporting Station
Clear Clear  
Wind Chill: 42°   Ceiling: Unl
Heat Index: 47°   Visibility: 10mi
Dew Point: 36°   Wind: 12mph
Humidity: 65%   Direction: 350°N
Pressure: 30.18"   Gusts: NA
Location:  33.84°N, 103.34°W
Report Text: KCVS 301258Z AUTO 35010KT 10SM CLR 08/02 A3018 RMK AO2 SLP194 T00840021 $
Loading
Personal Weather Stations






























Interactive Weather Map
Tropical Storm Tracking
New forecast layout! Learn more

10-Day Weather Forecast

Advertisements
Track Severe Weather on mobile